sensor_id;sensor_type;location;lat;lon;timestamp;temperature;humidity
65568;DHT22;52211;50.154;8.682;2023-06-10T00:01:46;22.40;43.60
65568;DHT22;52211;50.154;8.682;2023-06-10T00:04:21;22.40;43.80
65568;DHT22;52211;50.154;8.682;2023-06-10T00:06:49;22.30;43.60
65568;DHT22;52211;50.154;8.682;2023-06-10T00:09:18;22.30;43.70
65568;DHT22;52211;50.154;8.682;2023-06-10T00:11:47;22.30;43.80
65568;DHT22;52211;50.154;8.682;2023-06-10T00:14:14;22.20;44.00
65568;DHT22;52211;50.154;8.682;2023-06-10T00:16:45;22.20;44.00
65568;DHT22;52211;50.154;8.682;2023-06-10T00:19:13;22.20;44.20
65568;DHT22;52211;50.154;8.682;2023-06-10T00:21:40;22.20;44.10
65568;DHT22;52211;50.154;8.682;2023-06-10T00:24:08;22.10;44.10
65568;DHT22;52211;50.154;8.682;2023-06-10T00:26:41;22.10;44.20
65568;DHT22;52211;50.154;8.682;2023-06-10T00:29:13;22.00;44.30
65568;DHT22;52211;50.154;8.682;2023-06-10T00:31:41;22.00;44.30
65568;DHT22;52211;50.154;8.682;2023-06-10T00:34:10;21.90;44.30
65568;DHT22;52211;50.154;8.682;2023-06-10T00:36:42;21.90;44.40
65568;DHT22;52211;50.154;8.682;2023-06-10T00:39:12;21.90;44.50
65568;DHT22;52211;50.154;8.682;2023-06-10T00:41:42;21.90;44.60
65568;DHT22;52211;50.154;8.682;2023-06-10T00:44:12;21.80;44.60
65568;DHT22;52211;50.154;8.682;2023-06-10T00:46:50;21.80;44.90
65568;DHT22;52211;50.154;8.682;2023-06-10T00:49:20;21.80;44.80
65568;DHT22;52211;50.154;8.682;2023-06-10T00:51:47;21.80;44.80
65568;DHT22;52211;50.154;8.682;2023-06-10T00:54:17;21.70;44.80
65568;DHT22;52211;50.154;8.682;2023-06-10T00:56:47;21.70;44.80
65568;DHT22;52211;50.154;8.682;2023-06-10T00:59:17;21.70;45.10
65568;DHT22;52211;50.154;8.682;2023-06-10T01:01:46;21.70;45.00
65568;DHT22;52211;50.154;8.682;2023-06-10T01:04:21;21.60;45.00
65568;DHT22;52211;50.154;8.682;2023-06-10T01:10:15;21.60;45.60
65568;DHT22;52211;50.154;8.682;2023-06-10T01:13:07;21.60;45.70
65568;DHT22;52211;50.154;8.682;2023-06-10T01:15:38;21.50;45.70
65568;DHT22;52211;50.154;8.682;2023-06-10T01:18:13;21.50;45.10
65568;DHT22;52211;50.154;8.682;2023-06-10T01:20:46;21.50;45.60
65568;DHT22;52211;50.154;8.682;2023-06-10T01:23:20;21.50;45.30
65568;DHT22;52211;50.154;8.682;2023-06-10T01:25:56;21.40;45.20
65568;DHT22;52211;50.154;8.682;2023-06-10T01:28:48;21.40;45.50
65568;DHT22;52211;50.154;8.682;2023-06-10T01:31:54;21.40;45.60
65568;DHT22;52211;50.154;8.682;2023-06-10T01:34:29;21.30;45.60
65568;DHT22;52211;50.154;8.682;2023-06-10T01:37:01;21.30;45.30
65568;DHT22;52211;50.154;8.682;2023-06-10T01:39:35;21.30;45.40
65568;DHT22;52211;50.154;8.682;2023-06-10T01:42:09;21.20;45.50
65568;DHT22;52211;50.154;8.682;2023-06-10T01:44:39;21.20;45.50
65568;DHT22;52211;50.154;8.682;2023-06-10T01:47:09;21.20;45.60
65568;DHT22;52211;50.154;8.682;2023-06-10T01:49:40;21.10;45.60
65568;DHT22;52211;50.154;8.682;2023-06-10T01:52:10;21.10;45.90
65568;DHT22;52211;50.154;8.682;2023-06-10T01:54:37;21.10;45.70
65568;DHT22;52211;50.154;8.682;2023-06-10T01:57:05;21.10;45.90
65568;DHT22;52211;50.154;8.682;2023-06-10T01:59:37;21.10;45.90
65568;DHT22;52211;50.154;8.682;2023-06-10T02:02:05;21.10;46.10
65568;DHT22;52211;50.154;8.682;2023-06-10T02:04:32;21.00;45.90
65568;DHT22;52211;50.154;8.682;2023-06-10T02:07:01;21.00;45.90
65568;DHT22;52211;50.154;8.682;2023-06-10T02:09:34;21.00;46.00
65568;DHT22;52211;50.154;8.682;2023-06-10T02:12:05;21.00;46.10
65568;DHT22;52211;50.154;8.682;2023-06-10T02:14:35;20.90;46.10
65568;DHT22;52211;50.154;8.682;2023-06-10T02:17:06;21.00;46.20
65568;DHT22;52211;50.154;8.682;2023-06-10T02:19:33;21.00;46.20
65568;DHT22;52211;50.154;8.682;2023-06-10T02:22:09;20.90;46.20
65568;DHT22;52211;50.154;8.682;2023-06-10T02:24:39;20.90;46.20
65568;DHT22;52211;50.154;8.682;2023-06-10T02:27:10;20.90;46.40
65568;DHT22;52211;50.154;8.682;2023-06-10T02:29:40;20.80;46.50
65568;DHT22;52211;50.154;8.682;2023-06-10T02:32:08;20.80;46.50
65568;DHT22;52211;50.154;8.682;2023-06-10T02:34:37;20.80;46.60
65568;DHT22;52211;50.154;8.682;2023-06-10T02:37:07;20.70;46.60
65568;DHT22;52211;50.154;8.682;2023-06-10T02:39:35;20.70;46.70
65568;DHT22;52211;50.154;8.682;2023-06-10T02:42:15;20.70;46.70
65568;DHT22;52211;50.154;8.682;2023-06-10T02:44:44;20.60;46.90
65568;DHT22;52211;50.154;8.682;2023-06-10T02:47:20;20.60;46.80
65568;DHT22;52211;50.154;8.682;2023-06-10T02:49:52;20.60;46.70
65568;DHT22;52211;50.154;8.682;2023-06-10T02:52:22;20.60;47.00
65568;DHT22;52211;50.154;8.682;2023-06-10T02:54:50;20.50;46.90
65568;DHT22;52211;50.154;8.682;2023-06-10T02:57:16;20.50;46.90
65568;DHT22;52211;50.154;8.682;2023-06-10T02:59:46;20.50;47.00
65568;DHT22;52211;50.154;8.682;2023-06-10T03:02:15;20.50;47.20
65568;DHT22;52211;50.154;8.682;2023-06-10T03:04:50;20.40;47.80
65568;DHT22;52211;50.154;8.682;2023-06-10T03:07:19;20.40;47.30
65568;DHT22;52211;50.154;8.682;2023-06-10T03:09:48;20.40;47.30
65568;DHT22;52211;50.154;8.682;2023-06-10T03:12:16;20.40;47.30
65568;DHT22;52211;50.154;8.682;2023-06-10T03:14:46;20.40;47.40
65568;DHT22;52211;50.154;8.682;2023-06-10T03:17:15;20.40;47.50
65568;DHT22;52211;50.154;8.682;2023-06-10T03:19:48;20.30;47.60
65568;DHT22;52211;50.154;8.682;2023-06-10T03:22:17;20.30;47.80
65568;DHT22;52211;50.154;8.682;2023-06-10T03:24:54;20.30;47.60
65568;DHT22;52211;50.154;8.682;2023-06-10T03:27:22;20.30;47.70
65568;DHT22;52211;50.154;8.682;2023-06-10T03:29:58;20.20;47.70
65568;DHT22;52211;50.154;8.682;2023-06-10T03:32:26;20.20;47.70
65568;DHT22;52211;50.154;8.682;2023-06-10T03:34:55;20.20;47.70
65568;DHT22;52211;50.154;8.682;2023-06-10T03:37:29;20.20;47.80
65568;DHT22;52211;50.154;8.682;2023-06-10T03:40:01;20.20;47.90
65568;DHT22;52211;50.154;8.682;2023-06-10T03:42:31;20.10;47.80
65568;DHT22;52211;50.154;8.682;2023-06-10T03:45:02;20.10;47.90
65568;DHT22;52211;50.154;8.682;2023-06-10T03:47:36;20.10;47.90
65568;DHT22;52211;50.154;8.682;2023-06-10T03:50:07;20.10;48.00
65568;DHT22;52211;50.154;8.682;2023-06-10T03:52:41;20.10;48.00
65568;DHT22;52211;50.154;8.682;2023-06-10T03:55:08;20.10;48.10
65568;DHT22;52211;50.154;8.682;2023-06-10T03:57:41;20.10;48.20
65568;DHT22;52211;50.154;8.682;2023-06-10T04:00:11;20.10;48.10
65568;DHT22;52211;50.154;8.682;2023-06-10T04:02:44;20.10;48.20
65568;DHT22;52211;50.154;8.682;2023-06-10T04:05:29;20.10;48.20
65568;DHT22;52211;50.154;8.682;2023-06-10T04:08:00;20.10;48.90
65568;DHT22;52211;50.154;8.682;2023-06-10T04:10:32;20.10;48.20
65568;DHT22;52211;50.154;8.682;2023-06-10T04:13:02;20.10;48.40
65568;DHT22;52211;50.154;8.682;2023-06-10T04:15:37;20.10;48.40
65568;DHT22;52211;50.154;8.682;2023-06-10T04:18:08;20.10;48.40
65568;DHT22;52211;50.154;8.682;2023-06-10T04:20:40;20.10;48.30
65568;DHT22;52211;50.154;8.682;2023-06-10T04:23:10;20.10;48.40
65568;DHT22;52211;50.154;8.682;2023-06-10T04:25:39;20.10;48.40
65568;DHT22;52211;50.154;8.682;2023-06-10T04:28:11;20.20;48.50
65568;DHT22;52211;50.154;8.682;2023-06-10T04:30:38;20.10;48.50
65568;DHT22;52211;50.154;8.682;2023-06-10T04:33:08;20.20;48.50
65568;DHT22;52211;50.154;8.682;2023-06-10T04:35:40;20.20;48.50
65568;DHT22;52211;50.154;8.682;2023-06-10T04:38:12;20.20;48.60
65568;DHT22;52211;50.154;8.682;2023-06-10T04:40:43;20.20;48.60
65568;DHT22;52211;50.154;8.682;2023-06-10T04:43:15;20.20;48.80
65568;DHT22;52211;50.154;8.682;2023-06-10T04:45:45;20.20;48.70
65568;DHT22;52211;50.154;8.682;2023-06-10T04:48:17;20.30;48.70
65568;DHT22;52211;50.154;8.682;2023-06-10T04:50:46;20.30;48.70
65568;DHT22;52211;50.154;8.682;2023-06-10T04:53:16;20.30;48.90
65568;DHT22;52211;50.154;8.682;2023-06-10T04:55:45;20.30;48.70
65568;DHT22;52211;50.154;8.682;2023-06-10T04:58:12;20.30;48.70
65568;DHT22;52211;50.154;8.682;2023-06-10T05:00:39;20.30;48.80
65568;DHT22;52211;50.154;8.682;2023-06-10T05:03:10;20.30;48.80
65568;DHT22;52211;50.154;8.682;2023-06-10T05:05:39;20.40;48.80
65568;DHT22;52211;50.154;8.682;2023-06-10T05:08:09;20.40;49.50
65568;DHT22;52211;50.154;8.682;2023-06-10T05:10:35;20.40;48.90
65568;DHT22;52211;50.154;8.682;2023-06-10T05:13:02;20.40;48.90
65568;DHT22;52211;50.154;8.682;2023-06-10T05:15:29;20.50;49.00
65568;DHT22;52211;50.154;8.682;2023-06-10T05:17:57;20.50;49.70
65568;DHT22;52211;50.154;8.682;2023-06-10T05:20:29;20.50;49.00
65568;DHT22;52211;50.154;8.682;2023-06-10T05:23:03;20.60;49.00
65568;DHT22;52211;50.154;8.682;2023-06-10T05:25:32;20.60;49.10
65568;DHT22;52211;50.154;8.682;2023-06-10T05:27:59;20.70;49.10
65568;DHT22;52211;50.154;8.682;2023-06-10T05:30:29;20.70;49.00
65568;DHT22;52211;50.154;8.682;2023-06-10T05:32:58;20.70;49.10
65568;DHT22;52211;50.154;8.682;2023-06-10T05:35:27;20.70;49.10
65568;DHT22;52211;50.154;8.682;2023-06-10T05:37:54;20.80;49.10
65568;DHT22;52211;50.154;8.682;2023-06-10T05:40:26;20.80;49.10
65568;DHT22;52211;50.154;8.682;2023-06-10T05:42:55;20.80;49.10
65568;DHT22;52211;50.154;8.682;2023-06-10T05:45:24;20.90;49.20
65568;DHT22;52211;50.154;8.682;2023-06-10T05:47:53;20.90;49.20
65568;DHT22;52211;50.154;8.682;2023-06-10T05:50:24;21.00;49.30
65568;DHT22;52211;50.154;8.682;2023-06-10T05:52:51;21.00;49.30
65568;DHT22;52211;50.154;8.682;2023-06-10T05:55:23;21.10;49.20
65568;DHT22;52211;50.154;8.682;2023-06-10T05:57:58;21.20;49.30
65568;DHT22;52211;50.154;8.682;2023-06-10T06:00:29;21.20;49.60
65568;DHT22;52211;50.154;8.682;2023-06-10T06:02:59;21.30;49.30
65568;DHT22;52211;50.154;8.682;2023-06-10T06:05:30;21.30;49.20
65568;DHT22;52211;50.154;8.682;2023-06-10T06:08:01;21.40;49.20
65568;DHT22;52211;50.154;8.682;2023-06-10T06:10:31;21.50;49.20
65568;DHT22;52211;50.154;8.682;2023-06-10T06:13:01;21.50;49.20
65568;DHT22;52211;50.154;8.682;2023-06-10T06:15:29;21.60;49.10
65568;DHT22;52211;50.154;8.682;2023-06-10T06:17:56;21.60;49.10
65568;DHT22;52211;50.154;8.682;2023-06-10T06:20:28;21.70;49.10
65568;DHT22;52211;50.154;8.682;2023-06-10T06:22:55;21.70;49.20
65568;DHT22;52211;50.154;8.682;2023-06-10T06:25:22;21.80;49.20
65568;DHT22;52211;50.154;8.682;2023-06-10T06:27:55;21.90;49.20
65568;DHT22;52211;50.154;8.682;2023-06-10T06:30:22;22.00;49.10
65568;DHT22;52211;50.154;8.682;2023-06-10T06:32:55;22.00;49.00
65568;DHT22;52211;50.154;8.682;2023-06-10T06:35:22;22.10;49.00
65568;DHT22;52211;50.154;8.682;2023-06-10T06:37:53;22.20;49.00
65568;DHT22;52211;50.154;8.682;2023-06-10T06:40:29;22.20;49.00
65568;DHT22;52211;50.154;8.682;2023-06-10T06:42:58;22.20;48.90
65568;DHT22;52211;50.154;8.682;2023-06-10T06:45:55;22.30;48.90
65568;DHT22;52211;50.154;8.682;2023-06-10T06:48:24;22.40;48.80
65568;DHT22;52211;50.154;8.682;2023-06-10T06:50:54;22.50;48.70
65568;DHT22;52211;50.154;8.682;2023-06-10T06:53:25;22.50;48.70
65568;DHT22;52211;50.154;8.682;2023-06-10T06:55:55;22.60;48.60
65568;DHT22;52211;50.154;8.682;2023-06-10T06:58:26;22.60;49.20
65568;DHT22;52211;50.154;8.682;2023-06-10T07:00:59;22.70;48.50
65568;DHT22;52211;50.154;8.682;2023-06-10T07:03:28;22.80;48.50
65568;DHT22;52211;50.154;8.682;2023-06-10T07:05:58;22.90;48.40
65568;DHT22;52211;50.154;8.682;2023-06-10T07:08:25;23.00;48.40
65568;DHT22;52211;50.154;8.682;2023-06-10T07:10:54;23.00;49.00
65568;DHT22;52211;50.154;8.682;2023-06-10T07:13:24;23.10;48.40
65568;DHT22;52211;50.154;8.682;2023-06-10T07:15:55;23.20;48.40
65568;DHT22;52211;50.154;8.682;2023-06-10T07:18:26;23.30;48.40
65568;DHT22;52211;50.154;8.682;2023-06-10T07:20:56;23.30;48.40
65568;DHT22;52211;50.154;8.682;2023-06-10T07:23:25;23.40;48.30
65568;DHT22;52211;50.154;8.682;2023-06-10T07:25:52;23.50;48.20
65568;DHT22;52211;50.154;8.682;2023-06-10T07:28:23;23.50;48.10
65568;DHT22;52211;50.154;8.682;2023-06-10T07:30:53;23.60;48.10
65568;DHT22;52211;50.154;8.682;2023-06-10T07:33:22;23.70;48.10
65568;DHT22;52211;50.154;8.682;2023-06-10T07:35:52;23.80;48.00
65568;DHT22;52211;50.154;8.682;2023-06-10T07:38:21;23.80;47.90
65568;DHT22;52211;50.154;8.682;2023-06-10T07:40:50;23.90;48.00
65568;DHT22;52211;50.154;8.682;2023-06-10T07:43:17;24.00;47.90
65568;DHT22;52211;50.154;8.682;2023-06-10T07:45:46;24.00;47.80
65568;DHT22;52211;50.154;8.682;2023-06-10T07:48:16;24.10;47.70
65568;DHT22;52211;50.154;8.682;2023-06-10T07:50:43;24.20;47.60
65568;DHT22;52211;50.154;8.682;2023-06-10T07:53:15;24.30;47.60
65568;DHT22;52211;50.154;8.682;2023-06-10T07:55:42;24.30;47.40
65568;DHT22;52211;50.154;8.682;2023-06-10T07:58:15;24.50;47.50
65568;DHT22;52211;50.154;8.682;2023-06-10T08:00:42;24.50;47.40
65568;DHT22;52211;50.154;8.682;2023-06-10T08:03:12;24.60;47.30
65568;DHT22;52211;50.154;8.682;2023-06-10T08:05:41;24.70;47.20
65568;DHT22;52211;50.154;8.682;2023-06-10T08:08:10;24.70;47.10
65568;DHT22;52211;50.154;8.682;2023-06-10T08:10:42;24.80;47.10
65568;DHT22;52211;50.154;8.682;2023-06-10T08:13:14;24.90;47.10
65568;DHT22;52211;50.154;8.682;2023-06-10T08:15:41;24.90;47.10
65568;DHT22;52211;50.154;8.682;2023-06-10T08:18:08;25.10;46.90
65568;DHT22;52211;50.154;8.682;2023-06-10T08:20:40;25.20;46.80
65568;DHT22;52211;50.154;8.682;2023-06-10T08:23:10;25.20;46.70
65568;DHT22;52211;50.154;8.682;2023-06-10T08:25:36;25.30;46.80
65568;DHT22;52211;50.154;8.682;2023-06-10T08:28:03;25.40;46.70
65568;DHT22;52211;50.154;8.682;2023-06-10T08:30:30;25.40;46.60
65568;DHT22;52211;50.154;8.682;2023-06-10T08:32:57;25.50;46.50
65568;DHT22;52211;50.154;8.682;2023-06-10T08:35:30;25.60;46.30
65568;DHT22;52211;50.154;8.682;2023-06-10T08:37:59;25.60;46.10
65568;DHT22;52211;50.154;8.682;2023-06-10T08:40:26;25.70;46.10
65568;DHT22;52211;50.154;8.682;2023-06-10T08:43:05;25.80;46.10
65568;DHT22;52211;50.154;8.682;2023-06-10T08:45:37;25.90;45.90
65568;DHT22;52211;50.154;8.682;2023-06-10T08:48:07;26.00;45.90
65568;DHT22;52211;50.154;8.682;2023-06-10T08:50:40;26.10;45.80
65568;DHT22;52211;50.154;8.682;2023-06-10T08:53:14;26.20;45.70
65568;DHT22;52211;50.154;8.682;2023-06-10T08:55:51;26.20;45.40
65568;DHT22;52211;50.154;8.682;2023-06-10T08:58:20;26.30;45.50
65568;DHT22;52211;50.154;8.682;2023-06-10T09:00:52;26.40;45.40
65568;DHT22;52211;50.154;8.682;2023-06-10T09:03:19;26.50;45.40
65568;DHT22;52211;50.154;8.682;2023-06-10T09:05:47;26.60;45.30
65568;DHT22;52211;50.154;8.682;2023-06-10T09:08:17;26.70;45.20
65568;DHT22;52211;50.154;8.682;2023-06-10T09:10:48;26.80;45.20
65568;DHT22;52211;50.154;8.682;2023-06-10T09:13:15;26.90;45.00
65568;DHT22;52211;50.154;8.682;2023-06-10T09:15:49;27.00;45.00
65568;DHT22;52211;50.154;8.682;2023-06-10T09:18:21;27.00;44.90
65568;DHT22;52211;50.154;8.682;2023-06-10T09:20:51;27.10;44.80
65568;DHT22;52211;50.154;8.682;2023-06-10T09:23:18;27.20;44.80
65568;DHT22;52211;50.154;8.682;2023-06-10T09:25:56;27.20;44.60
65568;DHT22;52211;50.154;8.682;2023-06-10T09:28:27;27.40;44.30
65568;DHT22;52211;50.154;8.682;2023-06-10T09:31:04;27.50;44.60
65568;DHT22;52211;50.154;8.682;2023-06-10T09:33:37;27.50;44.20
65568;DHT22;52211;50.154;8.682;2023-06-10T09:36:11;27.60;44.20
65568;DHT22;52211;50.154;8.682;2023-06-10T09:38:41;27.70;44.00
65568;DHT22;52211;50.154;8.682;2023-06-10T09:41:07;27.80;44.00
65568;DHT22;52211;50.154;8.682;2023-06-10T09:43:42;27.80;43.90
65568;DHT22;52211;50.154;8.682;2023-06-10T09:46:19;27.90;43.60
65568;DHT22;52211;50.154;8.682;2023-06-10T09:48:51;28.00;43.50
65568;DHT22;52211;50.154;8.682;2023-06-10T09:51:18;28.10;43.30
65568;DHT22;52211;50.154;8.682;2023-06-10T09:53:50;28.20;43.40
65568;DHT22;52211;50.154;8.682;2023-06-10T09:56:20;28.20;43.20
65568;DHT22;52211;50.154;8.682;2023-06-10T09:58:55;28.30;43.90
65568;DHT22;52211;50.154;8.682;2023-06-10T10:01:22;28.40;43.30
65568;DHT22;52211;50.154;8.682;2023-06-10T10:03:51;28.50;43.20
65568;DHT22;52211;50.154;8.682;2023-06-10T10:06:21;28.60;43.00
65568;DHT22;52211;50.154;8.682;2023-06-10T10:08:52;28.60;43.00
65568;DHT22;52211;50.154;8.682;2023-06-10T10:11:20;28.70;43.00
65568;DHT22;52211;50.154;8.682;2023-06-10T10:13:52;28.80;42.80
65568;DHT22;52211;50.154;8.682;2023-06-10T10:16:23;28.90;42.60
65568;DHT22;52211;50.154;8.682;2023-06-10T10:19:08;29.00;42.50
65568;DHT22;52211;50.154;8.682;2023-06-10T10:21:52;29.00;42.30
65568;DHT22;52211;50.154;8.682;2023-06-10T10:24:26;29.10;42.00
65568;DHT22;52211;50.154;8.682;2023-06-10T10:27:01;29.20;42.40
65568;DHT22;52211;50.154;8.682;2023-06-10T10:29:40;29.20;41.90
65568;DHT22;52211;50.154;8.682;2023-06-10T10:32:16;29.30;42.60
65568;DHT22;52211;50.154;8.682;2023-06-10T10:34:50;29.40;42.20
65568;DHT22;52211;50.154;8.682;2023-06-10T10:37:30;29.50;42.10
65568;DHT22;52211;50.154;8.682;2023-06-10T10:40:00;29.70;42.90
65568;DHT22;52211;50.154;8.682;2023-06-10T10:42:32;29.80;41.60
65568;DHT22;52211;50.154;8.682;2023-06-10T10:45:02;30.00;42.00
65568;DHT22;52211;50.154;8.682;2023-06-10T10:47:34;30.20;41.80
65568;DHT22;52211;50.154;8.682;2023-06-10T10:50:16;30.30;41.30
65568;DHT22;52211;50.154;8.682;2023-06-10T10:52:59;30.50;40.50
65568;DHT22;52211;50.154;8.682;2023-06-10T10:55:31;30.70;40.70
65568;DHT22;52211;50.154;8.682;2023-06-10T10:58:08;30.90;41.00
65568;DHT22;52211;50.154;8.682;2023-06-10T11:00:46;31.10;40.30
65568;DHT22;52211;50.154;8.682;2023-06-10T11:03:22;31.40;40.10
65568;DHT22;52211;50.154;8.682;2023-06-10T11:05:57;31.60;40.30
65568;DHT22;52211;50.154;8.682;2023-06-10T11:08:45;31.80;40.10
65568;DHT22;52211;50.154;8.682;2023-06-10T11:11:28;32.10;39.40
65568;DHT22;52211;50.154;8.682;2023-06-10T11:16:41;32.60;38.60
65568;DHT22;52211;50.154;8.682;2023-06-10T11:19:09;32.90;38.30
65568;DHT22;52211;50.154;8.682;2023-06-10T11:21:59;33.20;38.70
65568;DHT22;52211;50.154;8.682;2023-06-10T11:24:30;33.50;37.80
65568;DHT22;52211;50.154;8.682;2023-06-10T11:27:18;33.80;38.00
65568;DHT22;52211;50.154;8.682;2023-06-10T11:32:32;34.40;37.40
65568;DHT22;52211;50.154;8.682;2023-06-10T11:35:05;34.60;36.20
65568;DHT22;52211;50.154;8.682;2023-06-10T11:37:36;34.90;36.50
65568;DHT22;52211;50.154;8.682;2023-06-10T11:40:08;35.20;36.80
65568;DHT22;52211;50.154;8.682;2023-06-10T11:42:42;35.40;36.20
65568;DHT22;52211;50.154;8.682;2023-06-10T11:45:15;35.60;35.90
65568;DHT22;52211;50.154;8.682;2023-06-10T11:47:57;35.70;35.30
65568;DHT22;52211;50.154;8.682;2023-06-10T11:50:33;35.70;34.70
65568;DHT22;52211;50.154;8.682;2023-06-10T11:53:00;35.70;34.50
65568;DHT22;52211;50.154;8.682;2023-06-10T11:55:47;35.70;34.70
65568;DHT22;52211;50.154;8.682;2023-06-10T11:58:16;35.60;33.90
65568;DHT22;52211;50.154;8.682;2023-06-10T12:00:51;35.50;34.40
65568;DHT22;52211;50.154;8.682;2023-06-10T12:03:37;35.40;33.80
65568;DHT22;52211;50.154;8.682;2023-06-10T12:06:09;35.40;34.10
65568;DHT22;52211;50.154;8.682;2023-06-10T12:08:42;35.50;34.90
65568;DHT22;52211;50.154;8.682;2023-06-10T12:11:12;35.70;34.40
65568;DHT22;52211;50.154;8.682;2023-06-10T12:13:48;35.90;34.50
65568;DHT22;52211;50.154;8.682;2023-06-10T12:16:18;36.00;34.20
65568;DHT22;52211;50.154;8.682;2023-06-10T12:18:48;36.30;34.00
65568;DHT22;52211;50.154;8.682;2023-06-10T12:21:23;36.40;33.70
65568;DHT22;52211;50.154;8.682;2023-06-10T12:24:05;36.60;33.70
65568;DHT22;52211;50.154;8.682;2023-06-10T12:29:18;37.10;33.50
65568;DHT22;52211;50.154;8.682;2023-06-10T12:34:38;37.50;32.70
65568;DHT22;52211;50.154;8.682;2023-06-10T12:37:14;37.80;32.90
65568;DHT22;52211;50.154;8.682;2023-06-10T12:39:51;38.10;32.90
65568;DHT22;52211;50.154;8.682;2023-06-10T12:42:23;38.40;32.60
65568;DHT22;52211;50.154;8.682;2023-06-10T12:44:53;38.70;32.50
65568;DHT22;52211;50.154;8.682;2023-06-10T12:47:29;38.90;31.70
65568;DHT22;52211;50.154;8.682;2023-06-10T12:50:07;39.00;30.80
65568;DHT22;52211;50.154;8.682;2023-06-10T12:52:36;38.90;31.00
65568;DHT22;52211;50.154;8.682;2023-06-10T12:55:04;38.80;30.90
65568;DHT22;52211;50.154;8.682;2023-06-10T12:57:31;38.80;30.70
65568;DHT22;52211;50.154;8.682;2023-06-10T12:59:58;38.80;30.70
65568;DHT22;52211;50.154;8.682;2023-06-10T13:02:31;38.90;30.60
65568;DHT22;52211;50.154;8.682;2023-06-10T13:04:58;39.00;30.60
65568;DHT22;52211;50.154;8.682;2023-06-10T13:07:25;39.20;30.70
65568;DHT22;52211;50.154;8.682;2023-06-10T13:09:54;39.30;30.30
65568;DHT22;52211;50.154;8.682;2023-06-10T13:12:21;39.50;30.40
65568;DHT22;52211;50.154;8.682;2023-06-10T13:15:06;39.70;30.20
65568;DHT22;52211;50.154;8.682;2023-06-10T13:17:34;39.90;30.10
65568;DHT22;52211;50.154;8.682;2023-06-10T13:20:04;40.00;30.00
65568;DHT22;52211;50.154;8.682;2023-06-10T13:22:36;40.10;29.80
65568;DHT22;52211;50.154;8.682;2023-06-10T13:25:04;40.20;29.70
65568;DHT22;52211;50.154;8.682;2023-06-10T13:27:35;40.30;29.60
65568;DHT22;52211;50.154;8.682;2023-06-10T13:30:09;40.40;29.50
65568;DHT22;52211;50.154;8.682;2023-06-10T13:32:39;40.30;29.40
65568;DHT22;52211;50.154;8.682;2023-06-10T13:35:09;40.20;29.30
65568;DHT22;52211;50.154;8.682;2023-06-10T13:37:39;40.20;29.30
65568;DHT22;52211;50.154;8.682;2023-06-10T13:40:06;40.20;29.20
65568;DHT22;52211;50.154;8.682;2023-06-10T13:42:43;40.10;29.00
65568;DHT22;52211;50.154;8.682;2023-06-10T13:45:21;40.00;29.00
65568;DHT22;52211;50.154;8.682;2023-06-10T13:47:50;40.00;29.00
65568;DHT22;52211;50.154;8.682;2023-06-10T13:50:23;39.90;28.70
65568;DHT22;52211;50.154;8.682;2023-06-10T13:52:50;39.90;28.60
65568;DHT22;52211;50.154;8.682;2023-06-10T13:55:17;39.90;28.50
65568;DHT22;52211;50.154;8.682;2023-06-10T13:57:46;40.00;28.70
65568;DHT22;52211;50.154;8.682;2023-06-10T14:00:18;40.00;28.60
65568;DHT22;52211;50.154;8.682;2023-06-10T14:02:52;40.10;28.50
65568;DHT22;52211;50.154;8.682;2023-06-10T14:05:22;40.30;28.50
65568;DHT22;52211;50.154;8.682;2023-06-10T14:07:53;40.50;28.50
65568;DHT22;52211;50.154;8.682;2023-06-10T14:10:20;40.70;28.30
65568;DHT22;52211;50.154;8.682;2023-06-10T14:12:49;40.80;28.20
65568;DHT22;52211;50.154;8.682;2023-06-10T14:15:16;40.90;28.10
65568;DHT22;52211;50.154;8.682;2023-06-10T14:17:43;41.10;28.00
65568;DHT22;52211;50.154;8.682;2023-06-10T14:20:13;41.20;27.80
65568;DHT22;52211;50.154;8.682;2023-06-10T14:22:42;41.20;27.80
65568;DHT22;52211;50.154;8.682;2023-06-10T14:25:11;41.20;27.70
65568;DHT22;52211;50.154;8.682;2023-06-10T14:27:41;41.20;27.50
65568;DHT22;52211;50.154;8.682;2023-06-10T14:30:13;41.20;27.40
65568;DHT22;52211;50.154;8.682;2023-06-10T14:32:41;41.20;27.20
65568;DHT22;52211;50.154;8.682;2023-06-10T14:35:11;41.10;27.10
65568;DHT22;52211;50.154;8.682;2023-06-10T14:37:42;41.10;27.10
65568;DHT22;52211;50.154;8.682;2023-06-10T14:40:09;41.00;27.00
65568;DHT22;52211;50.154;8.682;2023-06-10T14:42:39;40.90;27.00
65568;DHT22;52211;50.154;8.682;2023-06-10T14:45:06;40.90;26.90
65568;DHT22;52211;50.154;8.682;2023-06-10T14:47:37;40.80;26.90
65568;DHT22;52211;50.154;8.682;2023-06-10T14:50:04;40.70;26.70
65568;DHT22;52211;50.154;8.682;2023-06-10T14:52:34;40.70;26.90
65568;DHT22;52211;50.154;8.682;2023-06-10T14:55:01;40.70;26.60
65568;DHT22;52211;50.154;8.682;2023-06-10T14:57:30;40.70;26.80
65568;DHT22;52211;50.154;8.682;2023-06-10T15:00:02;40.80;26.70
65568;DHT22;52211;50.154;8.682;2023-06-10T15:02:30;40.90;26.60
65568;DHT22;52211;50.154;8.682;2023-06-10T15:05:05;40.80;26.50
65568;DHT22;52211;50.154;8.682;2023-06-10T15:07:34;40.90;26.60
65568;DHT22;52211;50.154;8.682;2023-06-10T15:10:06;41.00;26.60
65568;DHT22;52211;50.154;8.682;2023-06-10T15:12:36;40.90;26.40
65568;DHT22;52211;50.154;8.682;2023-06-10T15:15:05;40.90;26.40
65568;DHT22;52211;50.154;8.682;2023-06-10T15:17:33;41.00;26.30
65568;DHT22;52211;50.154;8.682;2023-06-10T15:20:02;40.90;26.30
65568;DHT22;52211;50.154;8.682;2023-06-10T15:22:31;41.00;26.30
65568;DHT22;52211;50.154;8.682;2023-06-10T15:25:02;41.10;26.40
65568;DHT22;52211;50.154;8.682;2023-06-10T15:27:51;41.20;26.30
65568;DHT22;52211;50.154;8.682;2023-06-10T15:30:21;41.10;26.20
65568;DHT22;52211;50.154;8.682;2023-06-10T15:32:48;41.10;26.00
65568;DHT22;52211;50.154;8.682;2023-06-10T15:35:15;41.20;26.00
65568;DHT22;52211;50.154;8.682;2023-06-10T15:37:45;41.10;25.90
65568;DHT22;52211;50.154;8.682;2023-06-10T15:40:19;41.00;25.80
65568;DHT22;52211;50.154;8.682;2023-06-10T15:42:46;40.90;25.70
65568;DHT22;52211;50.154;8.682;2023-06-10T15:45:13;40.60;25.70
65568;DHT22;52211;50.154;8.682;2023-06-10T15:47:40;40.40;25.70
65568;DHT22;52211;50.154;8.682;2023-06-10T15:50:14;40.00;25.60
65568;DHT22;52211;50.154;8.682;2023-06-10T15:52:41;39.60;25.60
65568;DHT22;52211;50.154;8.682;2023-06-10T15:55:08;39.20;25.70
65568;DHT22;52211;50.154;8.682;2023-06-10T15:57:36;38.90;25.90
65568;DHT22;52211;50.154;8.682;2023-06-10T16:00:06;38.60;25.90
65568;DHT22;52211;50.154;8.682;2023-06-10T16:02:35;38.30;26.00
65568;DHT22;52211;50.154;8.682;2023-06-10T16:05:04;38.10;26.00
65568;DHT22;52211;50.154;8.682;2023-06-10T16:07:33;37.80;26.10
65568;DHT22;52211;50.154;8.682;2023-06-10T16:10:05;37.40;26.10